createdAt,value
2022-11-15T00:00:34.784Z,96.34
2022-11-15T00:01:58.405Z,96.51
2022-11-15T00:03:21.520Z,96.30
2022-11-15T00:04:43.710Z,96.38
2022-11-15T00:06:06.701Z,96.70
2022-11-15T00:07:53.957Z,96.65
2022-11-15T00:09:10.181Z,96.26
2022-11-15T00:10:31.676Z,96.31
2022-11-15T00:11:54.510Z,96.32
2022-11-15T00:13:15.838Z,96.25
2022-11-15T00:14:37.810Z,96.01
2022-11-15T00:16:00.485Z,95.87
2022-11-15T00:17:24.022Z,96.23
2022-11-15T00:18:50.312Z,96.59
2022-11-15T00:20:13.838Z,96.41
2022-11-15T00:21:35.927Z,96.67
2022-11-15T00:22:58.277Z,96.56
2022-11-15T00:24:20.765Z,96.57
2022-11-15T00:25:42.328Z,96.42
2022-11-15T00:27:07.851Z,96.20
2022-11-15T00:28:29.441Z,96.38
2022-11-15T00:29:51.706Z,96.16
2022-11-15T00:31:14.610Z,96.27
2022-11-15T00:32:38.387Z,96.50
2022-11-15T00:33:59.789Z,96.57
2022-11-15T00:35:22.519Z,96.58
2022-11-15T00:36:44.871Z,96.67
2022-11-15T00:38:06.306Z,96.78
2022-11-15T00:39:28.416Z,97.20
2022-11-15T00:40:49.538Z,97.25
2022-11-15T00:42:11.499Z,97.42
2022-11-15T00:43:33.540Z,97.55
2022-11-15T00:44:55.920Z,97.51
2022-11-15T00:46:18.107Z,97.57
2022-11-15T00:47:40.589Z,97.67
2022-11-15T00:49:03.147Z,97.23
2022-11-15T00:50:25.707Z,97.45
2022-11-15T00:51:47.830Z,97.72
2022-11-15T00:53:09.149Z,97.61
2022-11-15T00:54:31.409Z,97.68
2022-11-15T00:55:52.658Z,97.65
2022-11-15T00:57:14.779Z,97.15
2022-11-15T00:58:37.186Z,97.12
2022-11-15T00:59:58.325Z,97.29
2022-11-15T01:01:20.750Z,97.00
2022-11-15T01:02:43.561Z,97.11
2022-11-15T01:04:06.218Z,97.26
2022-11-15T01:05:27.459Z,97.21
2022-11-15T01:06:49.663Z,97.14
2022-11-15T01:08:14.188Z,96.75
2022-11-15T01:09:36.647Z,96.73
2022-11-15T01:11:03.278Z,97.19
2022-11-15T01:12:24.569Z,96.89
2022-11-15T01:13:46.856Z,96.86
2022-11-15T01:15:09.087Z,97.16
2022-11-15T01:16:31.401Z,96.93
2022-11-15T01:17:54.146Z,96.92
2022-11-15T01:19:16.627Z,96.82
2022-11-15T01:20:41.349Z,96.95
2022-11-15T01:22:03.467Z,96.74
2022-11-15T01:23:25.924Z,96.82
2022-11-15T01:24:47.057Z,96.98
2022-11-15T01:26:12.866Z,97.05
2022-11-15T01:27:35.461Z,97.08
2022-11-15T01:28:57.777Z,97.09
2022-11-15T01:30:20.524Z,97.20
2022-11-15T01:31:42.879Z,97.18
2022-11-15T01:33:06.886Z,97.10
2022-11-15T01:34:28.037Z,97.06
2022-11-15T01:35:50.522Z,96.96
2022-11-15T01:37:12.926Z,97.09
2022-11-15T01:38:34.458Z,97.10
2022-11-15T01:39:56.997Z,97.06
2022-11-15T01:41:19.698Z,96.93
2022-11-15T01:42:42.258Z,96.99
2022-11-15T01:44:43.569Z,97.62
2022-11-15T01:46:08.596Z,97.47
2022-11-15T01:47:32.287Z,97.39
2022-11-15T01:48:55.840Z,97.73
2022-11-15T01:50:20.459Z,97.89
2022-11-15T01:51:41.959Z,98.08
2022-11-15T01:53:03.978Z,98.34
2022-11-15T01:54:25.789Z,98.21
2022-11-15T01:55:48.288Z,97.96
2022-11-15T01:57:11.388Z,97.87
2022-11-15T01:58:37.508Z,97.25
2022-11-15T01:59:59.068Z,97.65
2022-11-15T02:01:21.954Z,97.58
2022-11-15T02:02:44.158Z,97.71
2022-11-15T02:04:10.738Z,97.81
2022-11-15T02:05:33.468Z,97.92
2022-11-15T02:06:55.078Z,97.90
2022-11-15T02:08:21.246Z,98.19
2022-11-15T02:09:43.128Z,98.12
2022-11-15T02:11:07.367Z,97.85
2022-11-15T02:12:28.848Z,98.11
2022-11-15T02:13:51.297Z,98.14
2022-11-15T02:15:14.247Z,97.99
2022-11-15T02:16:41.096Z,97.97
2022-11-15T02:18:13.117Z,98.39
2022-11-15T02:19:55.976Z,98.26
2022-11-15T02:21:26.816Z,98.05
2022-11-15T02:22:58.929Z,98.29
2022-11-15T02:24:50.197Z,98.33
2022-11-15T02:26:38.408Z,98.41
2022-11-15T02:28:23.884Z,98.48
2022-11-15T02:30:07.419Z,98.28
2022-11-15T02:31:34.075Z,98.64
2022-11-15T02:33:00.675Z,98.53
2022-11-15T02:34:29.052Z,98.54
2022-11-15T02:35:59.858Z,98.55
2022-11-15T02:37:28.779Z,98.77
2022-11-15T02:38:56.679Z,98.60
2022-11-15T02:40:25.487Z,98.74
2022-11-15T02:41:50.819Z,98.88
2022-11-15T02:43:30.996Z,98.73
2022-11-15T02:44:53.020Z,98.93
2022-11-15T02:46:20.183Z,98.83
2022-11-15T02:47:45.486Z,98.84
2022-11-15T02:49:08.208Z,99.03
2022-11-15T02:50:32.448Z,98.99
2022-11-15T02:51:54.169Z,99.04
2022-11-15T02:53:17.496Z,98.97
2022-11-15T02:54:39.798Z,99.10
2022-11-15T02:56:01.041Z,99.08
2022-11-15T02:57:32.291Z,98.95
2022-11-15T02:59:22.329Z,99.03
2022-11-15T03:00:49.750Z,98.85
2022-11-15T03:02:20.287Z,99.00
2022-11-15T03:03:55.279Z,98.95
2022-11-15T03:05:22.167Z,98.67
2022-11-15T03:06:48.764Z,98.84
2022-11-15T03:08:14.596Z,98.89
2022-11-15T03:09:38.268Z,99.14
2022-11-15T03:11:05.607Z,99.16
2022-11-15T03:12:30.758Z,98.75
2022-11-15T03:13:59.480Z,98.73
2022-11-15T03:15:24.676Z,98.75
2022-11-15T03:16:50.194Z,98.68
2022-11-15T03:18:14.889Z,98.79
2022-11-15T03:19:43.948Z,98.43
2022-11-15T03:21:08.700Z,98.83
2022-11-15T03:22:35.639Z,98.83
2022-11-15T03:23:57.301Z,98.88
2022-11-15T03:25:22.426Z,98.90
2022-11-15T03:26:46.011Z,98.63
2022-11-15T03:28:09.616Z,98.63
2022-11-15T03:29:35.357Z,98.54
2022-11-15T03:30:56.946Z,98.96
2022-11-15T03:32:21.905Z,98.75
2022-11-15T03:33:44.647Z,99.08
2022-11-15T03:35:09.776Z,99.18
2022-11-15T03:36:33.577Z,99.13
2022-11-15T03:37:58.495Z,99.20
2022-11-15T03:39:20.975Z,98.75
2022-11-15T03:40:47.027Z,98.89
2022-11-15T03:42:18.387Z,99.21
2022-11-15T03:43:45.644Z,99.19
2022-11-15T03:45:15.561Z,99.01
2022-11-15T03:46:42.070Z,98.82
2022-11-15T03:48:07.867Z,98.61
2022-11-15T03:49:32.157Z,98.63
2022-11-15T03:50:56.200Z,98.61
2022-11-15T03:52:19.211Z,98.40
2022-11-15T03:53:41.678Z,98.74
2022-11-15T03:55:05.447Z,98.87
2022-11-15T03:56:30.218Z,98.94
2022-11-15T03:57:54.866Z,99.07
2022-11-15T03:59:19.287Z,98.82
2022-11-15T04:00:41.827Z,98.74
2022-11-15T04:02:03.328Z,98.59
2022-11-15T04:03:25.486Z,98.54
2022-11-15T04:04:47.016Z,98.53
2022-11-15T04:06:11.006Z,98.31
2022-11-15T04:07:33.197Z,98.47
2022-11-15T04:08:54.497Z,98.47
2022-11-15T04:10:16.938Z,98.84
2022-11-15T04:11:38.218Z,99.01
2022-11-15T04:13:00.791Z,98.88
2022-11-15T04:14:22.929Z,98.62
2022-11-15T04:15:45.366Z,98.53
2022-11-15T04:17:06.831Z,98.33
2022-11-15T04:18:32.016Z,98.19
2022-11-15T04:20:11.281Z,98.39
2022-11-15T04:21:52.159Z,98.55
2022-11-15T04:23:33.332Z,98.33
2022-11-15T04:24:56.081Z,98.42
2022-11-15T04:26:20.443Z,98.40
2022-11-15T04:27:42.634Z,98.56
2022-11-15T04:29:22.407Z,98.70
2022-11-15T04:30:45.294Z,98.54
2022-11-15T04:32:07.866Z,98.46
2022-11-15T04:33:30.300Z,98.36
2022-11-15T04:34:52.359Z,98.34
2022-11-15T04:36:31.782Z,98.55
2022-11-15T04:37:56.117Z,98.52
2022-11-15T04:39:17.599Z,98.40
2022-11-15T04:40:40.407Z,98.42
2022-11-15T04:42:05.057Z,98.68
2022-11-15T04:43:27.497Z,98.48
2022-11-15T04:44:48.616Z,98.45
2022-11-15T04:46:10.866Z,98.42
2022-11-15T04:47:33.188Z,98.29
2022-11-15T04:48:58.579Z,98.32
2022-11-15T04:50:21.749Z,98.17
2022-11-15T04:51:43.087Z,98.30
2022-11-15T04:53:07.193Z,98.28
2022-11-15T04:54:28.409Z,98.32
2022-11-15T04:55:50.766Z,98.21
2022-11-15T04:57:12.050Z,98.38
2022-11-15T04:58:34.933Z,98.49
2022-11-15T04:59:57.189Z,98.64
2022-11-15T05:01:18.745Z,98.62
2022-11-15T05:02:55.137Z,98.52
2022-11-15T05:04:23.046Z,98.59
2022-11-15T05:05:44.555Z,98.17
2022-11-15T05:07:07.157Z,97.97
2022-11-15T05:08:30.988Z,98.06
2022-11-15T05:09:52.095Z,98.40
2022-11-15T05:11:14.417Z,98.62
2022-11-15T05:12:35.978Z,98.43
2022-11-15T05:13:58.425Z,98.50
2022-11-15T05:15:19.925Z,98.52
2022-11-15T05:16:42.368Z,98.45
2022-11-15T05:18:05.026Z,98.67
2022-11-15T05:19:27.550Z,98.33
2022-11-15T05:20:49.922Z,98.54
2022-11-15T05:22:12.517Z,98.35
2022-11-15T05:23:35.346Z,98.19
2022-11-15T05:24:57.688Z,97.93
2022-11-15T05:26:19.597Z,97.76
2022-11-15T05:27:42.029Z,97.72
2022-11-15T05:29:04.566Z,97.76
2022-11-15T05:30:27.888Z,98.38
2022-11-15T05:31:50.681Z,98.30
2022-11-15T05:33:13.531Z,98.39
2022-11-15T05:34:34.696Z,98.14
2022-11-15T05:36:00.288Z,98.07
2022-11-15T05:37:22.405Z,98.22
2022-11-15T05:38:46.396Z,98.29
2022-11-15T05:40:10.148Z,98.40
2022-11-15T05:41:35.071Z,98.51
2022-11-15T05:42:57.912Z,98.68
2022-11-15T05:44:23.676Z,98.33
2022-11-15T05:45:45.944Z,98.40
2022-11-15T05:47:10.130Z,98.21
2022-11-15T05:48:32.479Z,98.19
2022-11-15T05:49:55.715Z,98.12
2022-11-15T05:51:17.740Z,98.57
2022-11-15T05:52:40.388Z,98.62
2022-11-15T05:54:04.297Z,98.42
2022-11-15T05:55:26.859Z,98.46
2022-11-15T05:56:49.395Z,98.63
2022-11-15T05:58:12.111Z,98.36
2022-11-15T05:59:34.434Z,98.49
2022-11-15T06:00:56.821Z,98.60
2022-11-15T06:02:19.301Z,98.57
2022-11-15T06:03:40.400Z,98.44
2022-11-15T06:05:02.507Z,98.79
2022-11-15T06:06:24.566Z,98.54
2022-11-15T06:07:45.855Z,98.79
2022-11-15T06:09:09.569Z,98.92
2022-11-15T06:10:31.736Z,99.32
2022-11-15T06:11:54.148Z,98.95
2022-11-15T06:13:16.620Z,98.71
2022-11-15T06:14:38.989Z,98.91
2022-11-15T06:15:59.981Z,98.97
2022-11-15T06:17:22.150Z,98.32
2022-11-15T06:18:44.512Z,98.48
2022-11-15T06:20:07.658Z,98.62
2022-11-15T06:21:30.344Z,98.44
2022-11-15T06:22:52.627Z,98.29
2022-11-15T06:24:16.407Z,98.25
2022-11-15T06:25:37.830Z,98.29
2022-11-15T06:27:00.179Z,98.51
2022-11-15T06:28:21.350Z,98.33
2022-11-15T06:29:43.687Z,98.39
2022-11-15T06:31:06.238Z,98.39
2022-11-15T06:32:28.768Z,98.42
2022-11-15T06:33:51.797Z,98.49
2022-11-15T06:35:14.702Z,98.58
2022-11-15T06:36:37.519Z,98.74
2022-11-15T06:38:04.379Z,98.87
2022-11-15T06:39:28.198Z,98.93
2022-11-15T06:40:50.338Z,98.63
2022-11-15T06:42:12.527Z,98.64
2022-11-15T06:43:35.237Z,98.50
2022-11-15T06:44:57.418Z,98.65
2022-11-15T06:46:19.556Z,98.25
2022-11-15T06:47:47.806Z,98.50
2022-11-15T06:49:09.893Z,98.22
2022-11-15T06:50:32.452Z,98.38
2022-11-15T06:51:54.827Z,98.20
2022-11-15T06:53:17.278Z,98.03
2022-11-15T06:54:41.167Z,98.10
2022-11-15T06:56:03.869Z,97.97
2022-11-15T06:57:26.040Z,97.98
2022-11-15T06:58:48.265Z,98.36
2022-11-15T07:00:12.446Z,98.34
2022-11-15T07:01:34.829Z,98.24
2022-11-15T07:02:56.157Z,98.21
2022-11-15T07:04:18.722Z,98.06
2022-11-15T07:05:41.168Z,97.91
2022-11-15T07:07:03.492Z,98.07
2022-11-15T07:08:26.618Z,98.39
2022-11-15T07:09:50.339Z,98.72
2022-11-15T07:11:12.748Z,98.68
2022-11-15T07:12:34.806Z,98.43
2022-11-15T07:13:57.137Z,98.52
2022-11-15T07:15:20.284Z,98.91
2022-11-15T07:16:42.665Z,99.01
2022-11-15T07:18:05.209Z,98.99
2022-11-15T07:19:27.718Z,98.86
2022-11-15T07:20:50.038Z,98.88
2022-11-15T07:22:12.367Z,98.70
2022-11-15T07:23:35.014Z,98.49
2022-11-15T07:24:58.449Z,98.07
2022-11-15T07:26:21.092Z,98.48
2022-11-15T07:27:43.221Z,98.63
2022-11-15T07:29:05.649Z,98.31
2022-11-15T07:30:28.704Z,98.41
2022-11-15T07:31:52.184Z,98.63
2022-11-15T07:33:14.609Z,99.19
2022-11-15T07:34:36.758Z,99.24
2022-11-15T07:36:02.709Z,98.94
2022-11-15T07:37:25.538Z,98.37
2022-11-15T07:38:47.635Z,97.95
2022-11-15T07:40:12.610Z,98.62
2022-11-15T07:41:34.847Z,98.77
2022-11-15T07:43:01.261Z,98.46
2022-11-15T07:44:23.859Z,98.44
2022-11-15T07:45:47.398Z,98.66
2022-11-15T07:47:09.966Z,99.22
2022-11-15T07:48:43.292Z,99.02
2022-11-15T07:50:07.686Z,99.07
2022-11-15T07:51:29.825Z,98.83
2022-11-15T07:52:56.181Z,99.32
2022-11-15T07:54:18.282Z,99.78
2022-11-15T07:55:43.028Z,99.89
2022-11-15T07:57:07.455Z,99.87
2022-11-15T07:58:29.955Z,99.59
2022-11-15T07:59:52.468Z,99.60
2022-11-15T08:01:14.995Z,99.32
2022-11-15T08:02:37.493Z,99.29
2022-11-15T08:03:59.908Z,99.22
2022-11-15T08:05:22.350Z,98.97
2022-11-15T08:06:44.657Z,98.95
2022-11-15T08:08:07.798Z,99.01
2022-11-15T08:09:30.211Z,98.62
2022-11-15T08:10:54.094Z,98.19
2022-11-15T08:12:17.239Z,98.61
2022-11-15T08:13:39.698Z,98.97
2022-11-15T08:15:02.039Z,99.35
2022-11-15T08:16:24.298Z,99.41
2022-11-15T08:17:46.767Z,99.65
2022-11-15T08:19:09.339Z,99.25
2022-11-15T08:20:32.450Z,99.32
2022-11-15T08:21:54.610Z,99.52
2022-11-15T08:23:17.170Z,99.08
2022-11-15T08:24:40.640Z,98.81
2022-11-15T08:26:05.807Z,98.64
2022-11-15T08:27:28.159Z,98.67
2022-11-15T08:28:50.607Z,98.44
2022-11-15T08:30:14.744Z,98.56
2022-11-15T08:31:38.178Z,98.27
2022-11-15T08:33:01.290Z,98.84
2022-11-15T08:34:23.445Z,98.98
2022-11-15T08:35:46.163Z,98.90
2022-11-15T08:37:08.436Z,98.89
2022-11-15T08:38:32.185Z,98.30
2022-11-15T08:39:54.510Z,98.62
2022-11-15T08:41:25.441Z,98.05
2022-11-15T08:42:48.680Z,98.43
2022-11-15T08:44:11.254Z,98.52
2022-11-15T08:45:33.875Z,98.29
2022-11-15T08:46:56.221Z,98.60
2022-11-15T08:48:19.037Z,98.55
2022-11-15T08:49:41.485Z,98.58
2022-11-15T08:51:04.072Z,98.58
2022-11-15T08:52:26.511Z,97.96
2022-11-15T08:53:48.947Z,98.05
2022-11-15T08:55:11.457Z,98.13
2022-11-15T08:56:35.341Z,98.13
2022-11-15T08:57:59.761Z,97.18
2022-11-15T08:59:22.399Z,97.46
2022-11-15T09:00:44.978Z,98.32
2022-11-15T09:02:08.282Z,98.87
2022-11-15T09:03:30.830Z,98.97
2022-11-15T09:04:53.556Z,98.50
2022-11-15T09:06:16.095Z,98.54
2022-11-15T09:07:38.397Z,98.81
2022-11-15T09:09:00.770Z,98.74
2022-11-15T09:10:23.632Z,98.90
2022-11-15T09:11:47.720Z,99.02
2022-11-15T09:13:10.258Z,98.21
2022-11-15T09:14:32.761Z,98.58
2022-11-15T09:15:55.698Z,98.67
2022-11-15T09:17:21.772Z,98.92
2022-11-15T09:18:47.434Z,99.63
2022-11-15T09:20:11.087Z,99.54
2022-11-15T09:21:33.690Z,98.97
2022-11-15T09:22:56.619Z,98.96
2022-11-15T09:24:19.420Z,99.20
2022-11-15T09:25:41.116Z,99.10
2022-11-15T09:27:05.502Z,98.67
2022-11-15T09:28:26.710Z,99.08
2022-11-15T09:29:49.316Z,98.64
2022-11-15T09:31:13.182Z,98.03
2022-11-15T09:32:39.373Z,98.16
2022-11-15T09:34:01.999Z,97.81
2022-11-15T09:35:24.852Z,97.71
2022-11-15T09:36:47.442Z,97.33
2022-11-15T09:38:09.999Z,97.44
2022-11-15T09:39:32.318Z,96.64
2022-11-15T09:41:02.314Z,96.46
2022-11-15T09:42:37.521Z,96.70
2022-11-15T09:44:11.689Z,96.91
2022-11-15T09:45:37.729Z,96.66
2022-11-15T09:47:16.959Z,96.57
2022-11-15T09:48:57.260Z,97.50
2022-11-15T09:50:34.449Z,97.70
2022-11-15T09:51:47.840Z,97.83
2022-11-15T09:52:51.971Z,97.94
2022-11-15T09:55:34.834Z,97.82
2022-11-15T09:56:40.632Z,97.84
2022-11-15T09:57:50.839Z,97.73
2022-11-15T09:59:00.800Z,97.63
2022-11-15T10:00:44.659Z,97.21
2022-11-15T10:01:41.341Z,96.70
2022-11-15T10:03:01.181Z,97.25
2022-11-15T10:04:10.538Z,97.12
2022-11-15T10:05:19.530Z,96.79
2022-11-15T10:06:26.322Z,96.12
2022-11-15T10:07:35.256Z,95.73
2022-11-15T10:08:50.723Z,95.67
2022-11-15T10:09:57.921Z,94.98
2022-11-15T10:11:36.017Z,94.82
2022-11-15T10:12:28.379Z,94.43
2022-11-15T10:13:36.972Z,94.26
2022-11-15T10:14:41.381Z,93.81
2022-11-15T10:15:49.028Z,93.61
2022-11-15T10:17:23.578Z,92.85
2022-11-15T10:18:31.035Z,92.57
2022-11-15T10:19:38.209Z,92.44
2022-11-15T10:20:48.988Z,92.37
2022-11-15T10:22:00.856Z,92.24
2022-11-15T10:23:08.369Z,91.65
2022-11-15T10:24:12.878Z,91.35
2022-11-15T10:25:21.568Z,91.27
2022-11-15T10:26:26.332Z,90.81
2022-11-15T10:27:29.268Z,90.46
2022-11-15T10:28:34.907Z,90.93
2022-11-15T10:29:38.077Z,90.10
2022-11-15T10:30:43.554Z,89.76
2022-11-15T10:31:50.929Z,89.58
2022-11-15T10:32:55.722Z,89.50
2022-11-15T10:34:12.517Z,89.17
2022-11-15T10:35:25.979Z,89.33
2022-11-15T10:36:30.314Z,89.14
2022-11-15T10:37:34.730Z,89.42
2022-11-15T10:38:57.183Z,89.15
2022-11-15T10:40:08.697Z,88.36
2022-11-15T10:41:13.404Z,88.39
2022-11-15T10:42:28.362Z,88.93
2022-11-15T10:43:32.723Z,88.46
2022-11-15T10:44:44.860Z,88.08
2022-11-15T10:45:51.160Z,88.05
2022-11-15T10:47:37.867Z,87.90
2022-11-15T10:48:43.291Z,87.09
2022-11-15T10:49:56.164Z,87.11
2022-11-15T10:51:00.819Z,86.74
2022-11-15T10:52:06.159Z,87.25
2022-11-15T10:53:15.269Z,87.23
2022-11-15T10:54:23.671Z,87.54
2022-11-15T10:55:30.657Z,86.72
2022-11-15T10:56:34.591Z,86.51
2022-11-15T10:57:39.374Z,86.46
2022-11-15T10:58:46.019Z,86.06
2022-11-15T10:59:49.995Z,85.25
2022-11-15T11:00:56.079Z,85.90
2022-11-15T11:01:59.280Z,84.75
2022-11-15T11:03:04.715Z,83.60
2022-11-15T11:04:10.079Z,83.52
2022-11-15T11:05:28.477Z,83.11
2022-11-15T11:06:32.670Z,82.54
2022-11-15T11:07:36.717Z,81.40
2022-11-15T11:08:41.038Z,81.13
2022-11-15T11:09:43.881Z,81.14
2022-11-15T11:11:00.071Z,81.75
2022-11-15T11:12:08.000Z,81.12
2022-11-15T11:13:15.668Z,81.90
2022-11-15T11:14:24.348Z,81.34
2022-11-15T11:15:30.738Z,81.19
2022-11-15T11:16:43.135Z,81.48
2022-11-15T11:18:00.589Z,80.88
2022-11-15T11:19:10.848Z,81.46
2022-11-15T11:20:21.649Z,81.32
2022-11-15T11:21:40.479Z,81.36
2022-11-15T11:23:06.723Z,80.95
2022-11-15T11:24:16.083Z,80.55
2022-11-15T11:25:25.804Z,80.35
2022-11-15T11:26:41.552Z,81.03
2022-11-15T11:27:57.477Z,80.38
2022-11-15T11:29:07.755Z,80.60
2022-11-15T11:30:18.619Z,80.87
2022-11-15T11:31:26.836Z,80.44
2022-11-15T11:32:44.948Z,80.66
2022-11-15T11:33:55.379Z,80.38
2022-11-15T11:35:03.098Z,80.12
2022-11-15T11:36:16.517Z,80.13
2022-11-15T11:37:26.356Z,80.29
2022-11-15T11:38:50.903Z,79.70
2022-11-15T11:40:10.321Z,80.16
2022-11-15T11:41:26.317Z,79.27
2022-11-15T11:42:39.820Z,79.85
2022-11-15T11:43:53.594Z,79.92
2022-11-15T11:45:03.146Z,79.43
2022-11-15T11:46:27.885Z,78.93
2022-11-15T11:47:36.076Z,79.35
2022-11-15T11:48:43.495Z,78.85
2022-11-15T11:49:51.118Z,78.30
2022-11-15T11:51:06.790Z,78.46
2022-11-15T11:52:14.458Z,78.16
2022-11-15T11:53:30.628Z,78.63
2022-11-15T11:54:41.087Z,78.10
2022-11-15T11:55:48.488Z,78.54
2022-11-15T11:56:53.725Z,78.11
2022-11-15T11:58:06.135Z,77.73
2022-11-15T11:59:14.638Z,77.53
2022-11-15T12:00:20.600Z,77.66
2022-11-15T12:01:28.338Z,78.19
2022-11-15T12:02:36.456Z,78.04
2022-11-15T12:03:43.527Z,77.92
2022-11-15T12:04:52.289Z,78.19
2022-11-15T12:05:57.724Z,77.86
2022-11-15T12:07:05.889Z,77.47
2022-11-15T12:08:26.648Z,77.21
2022-11-15T12:09:35.017Z,77.20
2022-11-15T12:10:40.035Z,77.08
2022-11-15T12:11:52.056Z,77.06
2022-11-15T12:13:00.654Z,76.91
2022-11-15T12:14:08.769Z,76.65
2022-11-15T12:15:16.714Z,77.07
2022-11-15T12:16:24.347Z,76.90
2022-11-15T12:17:33.344Z,76.91
2022-11-15T12:18:36.118Z,77.18
2022-11-15T12:19:42.050Z,77.15
2022-11-15T12:20:54.769Z,77.34
2022-11-15T12:22:02.337Z,77.56
2022-11-15T12:23:09.420Z,77.95
2022-11-15T12:24:18.359Z,77.36
2022-11-15T12:25:24.529Z,77.87
2022-11-15T12:26:30.306Z,77.40
2022-11-15T12:27:37.923Z,77.82
2022-11-15T12:29:04.836Z,77.37
2022-11-15T12:30:14.976Z,78.35
2022-11-15T12:31:22.327Z,77.89
2022-11-15T12:32:31.628Z,78.46
2022-11-15T12:33:37.889Z,78.45
2022-11-15T12:34:50.681Z,78.55
2022-11-15T12:36:01.880Z,78.76
2022-11-15T12:37:57.768Z,79.05
2022-11-15T12:39:06.243Z,79.16
2022-11-15T12:40:35.556Z,79.48
2022-11-15T12:41:41.204Z,79.84
2022-11-15T12:42:59.781Z,79.08
2022-11-15T12:44:05.116Z,80.18
2022-11-15T12:45:26.688Z,79.38
2022-11-15T12:47:07.138Z,79.09
2022-11-15T12:49:00.222Z,79.64
2022-11-15T12:50:06.559Z,79.34
2022-11-15T12:51:09.697Z,80.10
2022-11-15T12:52:14.180Z,79.66
2022-11-15T12:53:29.000Z,80.03
2022-11-15T12:55:01.558Z,79.83
2022-11-15T12:56:20.887Z,79.89
2022-11-15T12:57:37.925Z,79.79
2022-11-15T12:58:58.101Z,79.47
2022-11-15T13:00:47.336Z,80.34
2022-11-15T13:02:04.184Z,79.52
2022-11-15T13:03:31.046Z,79.90
2022-11-15T13:04:35.674Z,79.79
2022-11-15T13:06:06.954Z,80.50
2022-11-15T13:07:49.658Z,80.75
2022-11-15T13:08:54.100Z,80.11
2022-11-15T13:09:57.659Z,80.83
2022-11-15T13:11:43.418Z,80.78
2022-11-15T13:13:00.370Z,80.62
2022-11-15T13:14:48.811Z,81.08
2022-11-15T13:15:59.613Z,80.86
2022-11-15T13:17:04.247Z,81.35
2022-11-15T13:18:37.264Z,81.35
2022-11-15T13:19:40.981Z,81.27
2022-11-15T13:20:48.336Z,81.18
2022-11-15T13:22:11.728Z,81.43
2022-11-15T13:23:18.329Z,81.03
2022-11-15T13:24:21.997Z,81.79
2022-11-15T13:25:54.486Z,81.52
2022-11-15T13:26:59.143Z,81.53
2022-11-15T13:28:07.737Z,81.09
2022-11-15T13:29:22.580Z,81.24
2022-11-15T13:30:27.382Z,81.25
2022-11-15T13:31:39.117Z,81.61
2022-11-15T13:32:43.958Z,81.63
2022-11-15T13:33:49.077Z,81.26
2022-11-15T13:34:54.697Z,81.00
2022-11-15T13:35:59.734Z,81.75
2022-11-15T13:37:05.934Z,81.80
2022-11-15T13:38:21.571Z,81.52
2022-11-15T13:39:30.909Z,81.67
2022-11-15T13:40:38.541Z,81.73
2022-11-15T13:41:49.302Z,81.94
2022-11-15T13:42:52.925Z,81.69
2022-11-15T13:43:59.130Z,81.59
2022-11-15T13:45:06.921Z,81.71
2022-11-15T13:46:14.615Z,81.29
2022-11-15T13:47:22.298Z,81.87
2022-11-15T13:48:26.640Z,81.31
2022-11-15T13:49:32.967Z,81.70
2022-11-15T13:50:39.436Z,81.87
2022-11-15T13:51:47.369Z,82.14
2022-11-15T13:52:53.793Z,81.70
2022-11-15T13:54:02.692Z,82.35
2022-11-15T13:55:12.368Z,81.69
2022-11-15T13:56:18.140Z,82.01
2022-11-15T13:57:25.279Z,82.02
2022-11-15T13:58:29.738Z,81.85
2022-11-15T13:59:36.971Z,81.80
2022-11-15T14:00:44.091Z,82.31
2022-11-15T14:01:48.619Z,82.47
2022-11-15T14:02:52.221Z,82.30
2022-11-15T14:03:59.614Z,82.50
2022-11-15T14:05:07.094Z,82.14
2022-11-15T14:06:13.436Z,82.10
2022-11-15T14:07:21.395Z,81.82
2022-11-15T14:08:26.559Z,82.26
2022-11-15T14:09:41.534Z,82.14
2022-11-15T14:10:44.856Z,82.21
2022-11-15T14:11:53.563Z,82.03
2022-11-15T14:12:58.009Z,82.62
2022-11-15T14:14:14.797Z,82.05
2022-11-15T14:15:29.018Z,81.90
2022-11-15T14:16:35.363Z,82.06
2022-11-15T14:17:45.738Z,82.34
2022-11-15T14:18:55.836Z,81.77
2022-11-15T14:20:01.595Z,82.48
2022-11-15T14:21:08.556Z,82.63
2022-11-15T14:22:23.015Z,81.87
2022-11-15T14:23:29.100Z,82.18
2022-11-15T14:24:34.416Z,82.46
2022-11-15T14:25:38.891Z,82.32
2022-11-15T14:26:43.579Z,82.35
2022-11-15T14:28:14.449Z,82.09
2022-11-15T14:29:34.892Z,82.27
2022-11-15T14:30:51.390Z,82.39
2022-11-15T14:32:14.237Z,82.02
2022-11-15T14:33:32.647Z,82.53
2022-11-15T14:35:11.554Z,82.43
2022-11-15T14:36:24.777Z,82.91
2022-11-15T14:37:32.737Z,82.76
2022-11-15T14:38:38.639Z,82.95
2022-11-15T14:39:41.855Z,82.53
2022-11-15T14:40:46.480Z,82.75
2022-11-15T14:41:50.658Z,82.91
2022-11-15T14:42:55.234Z,83.22
2022-11-15T14:44:13.271Z,82.73
2022-11-15T14:45:20.858Z,82.83
2022-11-15T14:46:25.238Z,83.06
2022-11-15T14:47:29.512Z,82.95
2022-11-15T14:48:34.497Z,83.76
2022-11-15T14:49:37.982Z,83.09
2022-11-15T14:51:21.897Z,83.04
2022-11-15T14:53:08.503Z,83.24
2022-11-15T14:54:26.697Z,83.24
2022-11-15T14:55:39.319Z,83.14
2022-11-15T14:56:45.344Z,83.48
2022-11-15T14:57:49.959Z,83.28
2022-11-15T14:58:57.470Z,83.67
2022-11-15T15:00:02.045Z,83.61
2022-11-15T15:01:26.150Z,83.66
2022-11-15T15:02:30.956Z,83.63
2022-11-15T15:03:47.199Z,83.64
2022-11-15T15:04:57.180Z,83.57
2022-11-15T15:06:06.845Z,83.65
2022-11-15T15:07:18.098Z,83.52
2022-11-15T15:08:44.863Z,83.97
2022-11-15T15:10:24.498Z,83.83
2022-11-15T15:11:28.566Z,83.41
2022-11-15T15:12:38.615Z,83.85
2022-11-15T15:13:43.918Z,83.51
2022-11-15T15:14:49.223Z,83.63
2022-11-15T15:15:54.563Z,83.61
2022-11-15T15:16:58.914Z,83.77
2022-11-15T15:18:03.901Z,83.78
2022-11-15T15:19:08.568Z,83.67
2022-11-15T15:20:12.862Z,83.78
2022-11-15T15:21:37.603Z,83.98
2022-11-15T15:22:50.553Z,83.90
2022-11-15T15:24:03.604Z,84.01
2022-11-15T15:25:23.650Z,83.99
2022-11-15T15:26:28.376Z,84.16
2022-11-15T15:27:32.840Z,84.32
2022-11-15T15:28:37.598Z,83.91
2022-11-15T15:30:21.012Z,84.27
2022-11-15T15:31:26.163Z,84.80
2022-11-15T15:32:29.700Z,84.75
2022-11-15T15:33:34.337Z,84.62
2022-11-15T15:34:38.810Z,85.06
2022-11-15T15:35:43.328Z,84.79
2022-11-15T15:36:48.097Z,84.91
2022-11-15T15:37:53.434Z,85.09
2022-11-15T15:38:57.981Z,84.85
2022-11-15T15:40:01.398Z,84.95
2022-11-15T15:41:10.259Z,85.45
2022-11-15T15:42:14.755Z,85.51
2022-11-15T15:43:19.407Z,85.59
2022-11-15T15:44:23.959Z,86.06
2022-11-15T15:45:28.729Z,85.87
2022-11-15T15:46:35.502Z,86.05
2022-11-15T15:48:11.236Z,85.90
2022-11-15T15:49:14.715Z,85.83
2022-11-15T15:50:25.529Z,86.21
2022-11-15T15:51:29.736Z,86.31
2022-11-15T15:52:33.044Z,86.11
2022-11-15T15:53:37.682Z,86.32
2022-11-15T15:54:42.126Z,86.32
2022-11-15T15:55:46.479Z,86.11
2022-11-15T15:56:55.927Z,86.33
2022-11-15T15:58:00.763Z,86.20
2022-11-15T15:59:05.054Z,86.95
2022-11-15T16:00:10.201Z,87.17
2022-11-15T16:01:17.724Z,87.27
2022-11-15T16:02:21.011Z,87.45
2022-11-15T16:03:25.437Z,87.23
2022-11-15T16:04:30.056Z,87.32
2022-11-15T16:05:35.051Z,87.34
2022-11-15T16:06:40.481Z,87.25
2022-11-15T16:07:46.170Z,87.33
2022-11-15T16:09:13.580Z,87.70
2022-11-15T16:10:21.647Z,87.45
2022-11-15T16:11:26.088Z,87.88
2022-11-15T16:12:31.329Z,87.59
2022-11-15T16:13:35.757Z,87.72
2022-11-15T16:14:39.159Z,87.79
2022-11-15T16:15:44.727Z,87.60
2022-11-15T16:16:48.290Z,87.89
2022-11-15T16:17:54.974Z,87.91
2022-11-15T16:18:59.731Z,88.05
2022-11-15T16:20:03.657Z,88.26
2022-11-15T16:21:08.333Z,87.97
2022-11-15T16:22:22.855Z,88.30
2022-11-15T16:23:27.958Z,88.12
2022-11-15T16:24:31.520Z,87.90
2022-11-15T16:25:40.125Z,88.16
2022-11-15T16:26:45.589Z,87.96
2022-11-15T16:27:50.589Z,88.46
2022-11-15T16:28:55.519Z,88.37
2022-11-15T16:29:58.997Z,88.40
2022-11-15T16:31:05.968Z,88.29
2022-11-15T16:32:10.602Z,88.07
2022-11-15T16:33:15.114Z,88.38
2022-11-15T16:34:19.635Z,87.93
2022-11-15T16:35:23.107Z,88.07
2022-11-15T16:36:30.858Z,88.49
2022-11-15T16:37:34.950Z,88.00
2022-11-15T16:38:40.517Z,88.13
2022-11-15T16:39:44.096Z,88.18
2022-11-15T16:40:48.813Z,88.45
2022-11-15T16:42:38.218Z,88.14
2022-11-15T16:45:23.606Z,88.35
2022-11-15T16:46:33.241Z,88.48
2022-11-15T16:47:36.834Z,88.39
2022-11-15T16:49:15.876Z,88.54